VIKA weather

Kanpur Civil Airport
Kanpur, Uttar Pradesh, India

Public forecast

Using degrees Celsius for public forecast. Weather courtesy of forecast.io.

METAR (pilot weather report)

Closest report is Chaudhary Charan Singh International Airport, 34.1 nm (63.1 km) NE. Retrieved 2019/09/22 19:30 UTC (0 seconds ago):

VILK 221930Z 06005KT 3000 -DZ SCT020 BKN090 25/24 Q1011 NOSIG

TAF (pilot weather forecast)

Forecast is more than 12 hours old.

Closest forecast is Kanpur Airport, 3.3 nm (6.1 km) SE. Retrieved 2019/09/20 12:30 UTC (2 days ago):

TAF VICX 200930Z 2012/2024 05010KT 6000 FEW030 SCT100 TEMPO 2021/2024 4000 -TSRA FEW030TCU/CB